23 mai 2022

Temps Code Temps Temp. Vue Des nuages Vent METAR/SPECI
18:25
V
21 °C 10 km+ 4.400 ft 330°   330° 5 kt METAR EHDL 231625Z AUTO 33005KT 270V020 9999 SCT037 BKN044 BKN050 21/17 Q0995 BLU
17:55
V
21 °C 10 km+ 4.700 ft Var   Var 3 kt METAR EHDL 231555Z AUTO VRB03KT 9999 FEW035 BKN047 BKN051 21/16 Q0996 BLU
17:25
V
21 °C 10 km+ 8.900 ft Var   000° 0 kt METAR EHDL 231525Z AUTO 00000KT 9999 FEW070 SCT077 BKN089 21/16 Q0996 BLU
16:55
V
22 °C 10 km+ 4.300 ft 170°   170° 3 kt METAR EHDL 231455Z AUTO 17003KT 100V230 9999 OVC043 22/15 Q0997 BLU
16:25
V
22 °C 10 km+ 4.600 ft 180°   180° 4 kt METAR EHDL 231425Z AUTO 18004KT 120V240 9999 -RA FEW026CB BKN046 BKN065 OVC071 22/15 Q0997 RERA REDZ BLU
15:55
V
22 °C 10 km+ 8.100 ft 140°   140° 6 kt METAR EHDL 231355Z AUTO 14006KT 070V200 9999 -RADZ BKN081 OVC087 22/14 Q0997 BLU
15:25
V
23 °C 10 km+ 8.500 ft 130°   130° 6 kt METAR EHDL 231325Z AUTO 13006KT 060V210 9999 FEW080 BKN085 BKN091 23/13 Q0998 BLU
14:55
V
23 °C 10 km+ 10.000 ft 150°   150° 11 kt METAR EHDL 231255Z AUTO 15011KT 080V250 9999 FEW099 OVC100 23/13 Q0998 BLU
14:25
V
24 °C 10 km+ 15.000 ft Var   Var 10 kt METAR EHDL 231225Z AUTO VRB10KT 9999 OVC150 24/13 Q0999 BLU
13:55
V
23 °C 10 km+ 8.800 ft 110°   110° 7 kt METAR EHDL 231155Z AUTO 11007KT 070V200 9999 BKN088 OVC098 23/13 Q0999 BLU
13:25
V
21 °C 10 km+ 8.900 ft 130°   130° 8 kt METAR EHDL 231125Z AUTO 13008KT 050V200 9999 OVC089 21/12 Q1000 BLU
12:55
V
21 °C 10 km+ 10.000 ft 120°   120° 6 kt METAR EHDL 231055Z AUTO 12006KT 060V190 9999 FEW083 OVC100 21/13 Q1000 BLU
12:25
V
21 °C 10 km+ 9.600 ft Var   Var 5 kt METAR EHDL 231025Z AUTO VRB05KT 9999 -RA FEW074 SCT089 BKN096 21/13 Q1001 BLU
11:55
V
21 °C 10 km+ 10.000 ft Var   Var 7 kt METAR EHDL 230955Z AUTO VRB07KT 9999 SCT097 OVC100 21/12 Q1001 BLU
11:25
V
21 °C 10 km+ 10.000 ft 140°   140° 9 kt METAR EHDL 230925Z AUTO 14009KT 110V220 9999 FEW090 OVC100 21/12 Q1002 BLU
10:55
V
21 °C 10 km+ 12.000 ft 150°   150° 9 kt METAR EHDL 230855Z AUTO 15009KT 080V240 9999 OVC120 21/12 Q1002 BLU
10:25
V
20 °C 10 km+ 12.000 ft Var   Var 7 kt METAR EHDL 230825Z AUTO VRB07KT 9999 OVC120 20/12 Q1002 BLU
09:55
V
20 °C 10 km+ 12.000 ft 140°   140° 9 kt METAR EHDL 230755Z AUTO 14009KT 060V210 9999 OVC120 20/11 Q1003 BLU
09:25
V
18 °C 10 km+ 16.000 ft Var   Var 6 kt METAR EHDL 230725Z AUTO VRB06KT 9999 OVC160 18/11 Q1003 BLU
08:55
V
18 °C 10 km+ 15.000 ft 110°   110° 5 kt METAR EHDL 230655Z AUTO 11005KT 050V210 9999 OVC150 18/11 Q1003 BLU
08:25
V
17 °C 10 km+ 12.000 ft 120°   120° 5 kt METAR EHDL 230625Z AUTO 12005KT 070V190 9999 OVC120 17/11 Q1004 BLU
07:55
V
16 °C 10 km+ 16.000 ft Var   Var 4 kt METAR EHDL 230555Z AUTO VRB04KT 9999 OVC160 16/11 Q1004 BLU
07:25
V
15 °C 10 km+ 17.000 ft 110°   110° 5 kt METAR EHDL 230525Z AUTO 11005KT 050V210 9999 OVC170 15/10 Q1004 BLU
06:55
V
14 °C 10 km+ 16.000 ft 100°   100° 4 kt METAR EHDL 230455Z AUTO 10004KT 030V170 9999 OVC160 14/10 Q1005 BLU
06:25
V
14 °C 10 km+ 17.000 ft Var   Var 3 kt METAR EHDL 230425Z AUTO VRB03KT 9999 OVC170 14/09 Q1005 BLU
05:55
V
13 °C 10 km+ 15.000 ft Var   Var 4 kt METAR EHDL 230355Z AUTO VRB04KT 9999 OVC150 13/09 Q1005 BLU
05:25
V
13 °C 10 km+ 10.000 ft 100°   100° 3 kt METAR EHDL 230325Z AUTO 10003KT 040V190 9999 OVC100 13/09 Q1006 BLU
04:55
V
14 °C 10 km+ 15.000 ft Var   Var 4 kt METAR EHDL 230255Z AUTO VRB04KT 9999 SCT100 OVC150 14/09 Q1007 BLU
04:25
V
14 °C 10 km+ 10.000 ft Var   Var 4 kt METAR EHDL 230225Z AUTO VRB04KT 9999 OVC100 14/09 Q1007 BLU
03:55
V
14 °C 10 km+ 11.000 ft 100°   100° 5 kt METAR EHDL 230155Z AUTO 10005KT 040V180 9999 OVC110 14/09 Q1007 BLU
03:25
V
14 °C 10 km+ 12.000 ft 080°   080° 7 kt METAR EHDL 230125Z AUTO 08007KT 010V140 9999 OVC120 14/09 Q1007 BLU
02:55
V
14 °C 10 km+ 11.000 ft Var   Var 5 kt METAR EHDL 230055Z AUTO VRB05KT 9999 OVC110 14/09 Q1007 BLU
02:25
V
15 °C 10 km+ 11.000 ft 100°   100° 5 kt METAR EHDL 230025Z AUTO 10005KT 360V160 9999 SCT095 OVC110 15/08 Q1008 BLU
01:55
V
15 °C 10 km+ 12.000 ft 100°   100° 6 kt METAR EHDL 222355Z AUTO 10006KT 360V160 9999 OVC120 15/09 Q1009 BLU
01:25
V
15 °C 10 km+ 14.000 ft 100°   100° 7 kt METAR EHDL 222325Z AUTO 10007KT 360V170 9999 OVC140 15/09 Q1009 BLU
00:55
V
16 °C 10 km+ 12.000 ft Var   Var 7 kt METAR EHDL 222255Z AUTO VRB07KT 9999 OVC120 16/09 Q1009 BLU
00:25
V
16 °C 10 km+ 11.000 ft 090°   090° 5 kt METAR EHDL 222225Z AUTO 09005KT 360V160 9999 OVC110 16/09 Q1010 BLU

22 mai 2022

Temps Code Temps Temp. Vue Des nuages Vent METAR/SPECI
23:55
V
16 °C 10 km+ 17.000 ft Var   Var 5 kt METAR EHDL 222155Z AUTO VRB05KT 9999 OVC170 16/09 Q1010 BLU
23:25
V
16 °C 10 km+ 19.000 ft 090°   090° 4 kt METAR EHDL 222125Z AUTO 09004KT 340V150 9999 FEW120 OVC190 16/09 Q1010 BLU
22:55
V
16 °C 10 km+ 12.000 ft 080°   080° 4 kt METAR EHDL 222055Z AUTO 08004KT 350V110 9999 BKN120 OVC210 16/09 Q1010 BLU
22:25
V
16 °C 10 km+ 21.000 ft 080°   080° 4 kt METAR EHDL 222025Z AUTO 08004KT 010V120 9999 OVC210 16/09 Q1010 BLU
21:55
V
16 °C 10 km+ 21.000 ft 060°   060° 6 kt METAR EHDL 221955Z AUTO 06006KT 010V110 9999 FEW095 OVC210 16/10 Q1011 BLU
21:25
V
17 °C 10 km+ 22.000 ft 070°   070° 4 kt METAR EHDL 221925Z AUTO 07004KT 360V110 9999 FEW098 OVC220 17/10 Q1011 BLU
20:55
V
18 °C 10 km+ 23.000 ft 060°   060° 5 kt METAR EHDL 221855Z AUTO 06005KT 360V140 9999 FEW089 OVC230 18/10 Q1011 BLU
20:25
V
19 °C 10 km+ 23.000 ft 070°   070° 5 kt METAR EHDL 221825Z AUTO 07005KT 020V110 9999 SCT100 OVC230 19/10 Q1011 BLU
19:55
V
21 °C 10 km+ 25.000 ft 100°   100° 5 kt METAR EHDL 221755Z AUTO 10005KT 020V180 9999 BKN250 OVC310 21/09 Q1011 BLU
19:25
V
21 °C 10 km+ 25.000 ft Var   Var 7 kt METAR EHDL 221725Z AUTO VRB07KT 9999 OVC250 21/09 Q1012 BLU
18:55
V
21 °C 10 km+ 36.000 ft 100°   100° 6 kt METAR EHDL 221655Z AUTO 10006KT 010V160 9999 FEW084 SCT260 OVC360 21/09 Q1012 BLU
18:25
V
22 °C 10 km+ 8.400 ft 130°   130° 6 kt METAR EHDL 221625Z AUTO 13006KT 050V210 9999 OVC084 22/09 Q1012 BLU
17:55
V
21 °C 10 km+ 8.400 ft 130°   130° 6 kt METAR EHDL 221555Z AUTO 13006KT 070V210 9999 OVC084 21/09 Q1012 BLU
17:25
V
21 °C 10 km+ 8.700 ft 120°   120° 7 kt METAR EHDL 221525Z AUTO 12007KT 100V220 9999 BKN087 BKN092 BKN100 21/08 Q1013 BLU
16:55
V
21 °C 10 km+ 9.700 ft Var   Var 6 kt METAR EHDL 221455Z AUTO VRB06KT 9999 SCT091 BKN097 BKN360 21/08 Q1013 BLU
16:25
V
21 °C 10 km+ - Var   Var 6 kt METAR EHDL 221425Z AUTO VRB06KT 9999 SCT350 21/08 Q1013 BLU
15:55
V
21 °C 10 km+ - Var   Var 7 kt METAR EHDL 221355Z AUTO VRB07KT 9999 SCT390 21/07 Q1014 BLU
15:25
V
21 °C 10 km+ - Var   Var 6 kt METAR EHDL 221325Z AUTO VRB06KT 9999 FEW048 21/08 Q1014 BLU
14:55
V
21 °C 10 km+ - Var   Var 6 kt METAR EHDL 221255Z AUTO VRB06KT 9999 SCT047 21/09 Q1015 BLU
14:25
V
20 °C 10 km+ - Var   Var 5 kt METAR EHDL 221225Z AUTO VRB05KT 9999 SCT270 20/07 Q1015 BLU
13:55
V
20 °C 10 km+ - 080°   080° 5 kt METAR EHDL 221155Z AUTO 08005KT 9999 NCD 20/08 Q1015 BLU
13:25
V
19 °C 10 km+ 23.000 ft Var   Var 4 kt METAR EHDL 221125Z AUTO VRB04KT 9999 OVC230 19/08 Q1015 BLU
12:55
V
20 °C 10 km+ 37.000 ft Var   Var 5 kt METAR EHDL 221055Z AUTO VRB05KT 9999 OVC370 20/07 Q1016 BLU
12:25
V
19 °C 10 km+ 35.000 ft Var   Var 4 kt METAR EHDL 221025Z AUTO VRB04KT 9999 BKN350 19/07 Q1016 BLU
11:55
V
19 °C 10 km+ 26.000 ft Var   Var 5 kt METAR EHDL 220955Z AUTO VRB05KT 9999 BKN260 BKN350 19/08 Q1016 BLU
11:25
V
18 °C 10 km+ 35.000 ft Var   Var 4 kt METAR EHDL 220925Z AUTO VRB04KT 9999 FEW270 BKN350 18/06 Q1017 BLU
10:55
V
18 °C 10 km+ 25.000 ft Var   Var 3 kt METAR EHDL 220855Z AUTO VRB03KT 9999 BKN250 BKN330 18/08 Q1017 BLU
10:25
V
17 °C 10 km+ 23.000 ft 170°   170° 4 kt METAR EHDL 220825Z AUTO 17004KT 9999 OVC230 17/07 Q1017 BLU
09:55
V
16 °C 10 km+ 23.000 ft Var   Var 4 kt METAR EHDL 220755Z AUTO VRB04KT 9999 OVC230 16/08 Q1018 BLU
09:25
V
16 °C 10 km+ - 150°   150° 4 kt METAR EHDL 220725Z AUTO 15004KT 060V230 9999 FEW260 16/08 Q1018 BLU
08:55
V
15 °C 10 km+ - Var   Var 3 kt METAR EHDL 220655Z AUTO VRB03KT 9999 NCD 15/09 Q1018 BLU
08:25
V
14 °C 10 km+ - 120°   120° 3 kt METAR EHDL 220625Z AUTO 12003KT 050V210 9999 NCD 14/09 Q1018 BLU
07:55
V
13 °C 10 km+ - Var   Var 2 kt METAR EHDL 220555Z AUTO VRB02KT 9999 NCD 13/10 Q1018 BLU
07:25
V
9 °C 10 km+ 23.000 ft Var   Var 1 kt METAR EHDL 220525Z AUTO VRB01KT 9999 BKN230 09/08 Q1018 BLU
06:55
V
7 °C 10 km+ 22.000 ft 130°   130° 1 kt METAR EHDL 220455Z AUTO 13001KT 9999 OVC220 07/06 Q1018 BLU
06:25
V
5 °C 10 km+ 22.000 ft 110°   110° 3 kt METAR EHDL 220425Z AUTO 11003KT 9999 OVC220 05/05 Q1018 BLU
05:55
V
5 °C 10 km+ 23.000 ft 060°   060° 1 kt METAR EHDL 220355Z AUTO 06001KT 9999 OVC230 05/04 Q1018 BLU
05:25
V
5 °C 10 km+ 24.000 ft 120°   120° 2 kt METAR EHDL 220325Z AUTO 12002KT 9999 OVC240 05/05 Q1018 BLU
04:55
V
5 °C 10 km+ - Var   000° 0 kt METAR EHDL 220255Z AUTO 00000KT 9999 SCT280 SCT350 05/04 Q1018 BLU
04:25
V
6 °C 10 km+ - 130°   130° 2 kt METAR EHDL 220225Z AUTO 13002KT 9999 NCD 06/05 Q1018 BLU
03:55
V
6 °C 10 km+ - 110°   110° 1 kt METAR EHDL 220155Z AUTO 11001KT 9999 NCD 06/05 Q1019 BLU
03:25
V
7 °C 10 km+ - Var   Var 1 kt METAR EHDL 220125Z AUTO VRB01KT 9999 NCD 07/06 Q1019 BLU
02:55
V
7 °C 10 km+ - 120°   120° 1 kt METAR EHDL 220055Z AUTO 12001KT 9999 NCD 07/06 Q1019 BLU
02:25
V
7 °C 10 km+ 22.000 ft 120°   120° 1 kt METAR EHDL 220025Z AUTO 12001KT 9999 SCT051 BKN220 07/07 Q1019 BLU
01:55
V
7 °C 10 km+ 4.800 ft 100°   100° 1 kt METAR EHDL 212355Z AUTO 10001KT 9999 OVC048 07/07 Q1019 BLU
01:25
V
8 °C 10 km+ 22.000 ft 130°   130° 1 kt METAR EHDL 212325Z AUTO 13001KT 9999 OVC220 08/07 Q1019 BLU
00:55
V
8 °C 10 km+ 22.000 ft 160°   160° 1 kt METAR EHDL 212255Z AUTO 16001KT 9999 OVC220 08/07 Q1020 BLU
00:25
V
8 °C 10 km+ 23.000 ft 110°   110° 2 kt METAR EHDL 212225Z AUTO 11002KT 9999 OVC230 08/08 Q1019 BLU

21 mai 2022

Temps Code Temps Temp. Vue Des nuages Vent METAR/SPECI
23:55
V
9 °C 10 km+ - 130°   130° 2 kt METAR EHDL 212155Z AUTO 13002KT 9999 SCT240 09/08 Q1020 BLU
23:25
V
10 °C 10 km+ - 150°   150° 1 kt METAR EHDL 212125Z AUTO 15001KT 9999 NCD 10/08 Q1020 BLU
22:55
V
10 °C 10 km+ - 020°   020° 2 kt METAR EHDL 212055Z AUTO 02002KT 9999 FEW260 10/09 Q1020 BLU
22:25
V
11 °C 10 km+ - Var   000° 0 kt METAR EHDL 212025Z AUTO 00000KT 9999 NCD 11/09 Q1020 BLU
21:55
V
13 °C 10 km+ 28.000 ft 350°   350° 2 kt METAR EHDL 211955Z AUTO 35002KT 9999 OVC280 13/09 Q1020 BLU
21:25
V
14 °C 10 km+ 29.000 ft 310°   310° 4 kt METAR EHDL 211925Z AUTO 31004KT 9999 FEW140 OVC290 14/09 Q1020 BLU
20:55
V
16 °C 10 km+ 13.000 ft 310°   310° 5 kt METAR EHDL 211855Z AUTO 31005KT 260V360 9999 OVC130 16/09 Q1020 BLU
20:25
V
16 °C 10 km+ 14.000 ft 320°   320° 5 kt METAR EHDL 211825Z AUTO 32005KT 270V010 9999 OVC140 16/09 Q1020 BLU
19:55
V
16 °C 10 km+ 13.000 ft Var   Var 1 kt METAR EHDL 211755Z AUTO VRB01KT 9999 OVC130 16/09 Q1020 BLU
19:25
V
17 °C 10 km+ 13.000 ft 320°   320° 8 kt METAR EHDL 211725Z AUTO 32008KT 230V030 9999 FEW035 SCT045 OVC130 17/10 Q1020 BLU
18:55
V
17 °C 10 km+ 13.000 ft 280°   280° 7 kt METAR EHDL 211655Z AUTO 28007KT 220V360 9999 FEW036 SCT045 OVC130 17/09 Q1020 BLU
18:25
V
18 °C 10 km+ 15.000 ft 290°   290° 8 kt METAR EHDL 211625Z AUTO 29008KT 200V350 9999 FEW046 SCT051 OVC150 18/08 Q1020 BLU
17:55
V
18 °C 10 km+ 5.600 ft 260°   260° 9 kt METAR EHDL 211555Z AUTO 26009KT 210V340 9999 SCT038 BKN056 OVC130 18/09 Q1020 BLU
17:25
V
18 °C 10 km+ 12.000 ft 270°   270° 9 kt METAR EHDL 211525Z AUTO 27009KT 190V320 9999 FEW046 OVC120 18/09 Q1020 BLU
16:55
V
18 °C 10 km+ 4.400 ft 250°   250° 12 kt METAR EHDL 211455Z AUTO 25012KT 210V360 9999 SCT037 BKN044 OVC052 18/09 Q1020 BLU
Données plus anciennes

Télécharge notre application

Un accès facile à toute la météo aéronautique sur ton téléphone portable et ta tablette.
Avec de nombreuses fonctionnalités non disponibles sur le site Web, comme la prise en charge hors ligne et une liste personnelle d'aéroports.

Nous et des tiers suivons ton comportement sur Internet sur notre site Web à l'aide de cookies. Si tu continues, nous supposons que tu acceptes notre politique en matière de cookies. Apprendre plus